Time,TemperatureF,DewpointF,PressureIn,WindDirection,WindDirectionDegrees,WindSpeedMPH,WindSpeedGustMPH,Humidity,HourlyPrecipIn,Conditions,Clouds,dailyrainin,SoftwareType,DateUTC
2013-10-13 00:02:00,-999.0,-99.9,30.23,SE,139,0.0,4.0,-999,-99.99,,,-99.99,,2013-10-13 04:02:00,
2013-10-13 00:23:00,61.0,56.0,30.22,SSE,151,0.0,4.0,83,-99.99,,,-99.99,,2013-10-13 04:23:00,
2013-10-13 00:54:00,60.0,55.0,30.23,NE,46,0.0,1.0,83,-99.99,,,-99.99,,2013-10-13 04:54:00,
2013-10-13 01:23:00,60.0,55.0,30.23,SSW,200,0.0,2.0,84,-99.99,,,-99.99,,2013-10-13 05:23:00,
2013-10-13 01:43:00,60.0,55.0,30.23,ENE,63,0.0,1.0,84,-99.99,,,-99.99,,2013-10-13 05:43:00,
2013-10-13 01:52:00,60.0,55.0,30.24,NW,313,0.0,2.0,84,-99.99,,,-99.99,,2013-10-13 05:52:00,
2013-10-13 02:12:00,60.0,55.0,30.24,SE,128,1.0,2.0,84,-99.99,,,-99.99,,2013-10-13 06:12:00,
2013-10-13 02:22:00,60.0,55.0,30.24,SE,143,0.0,3.0,85,-99.99,,,-99.99,,2013-10-13 06:22:00,
2013-10-13 02:42:00,59.0,54.0,30.24,WSW,253,0.0,2.0,85,-99.99,,,-99.99,,2013-10-13 06:42:00,
2013-10-13 02:52:00,59.0,54.0,30.24,East,95,0.0,3.0,85,-99.99,,,-99.99,,2013-10-13 06:52:00,
2013-10-13 03:22:00,59.0,54.0,30.23,SSE,150,1.0,3.0,84,-99.99,,,-99.99,,2013-10-13 07:22:00,
2013-10-13 03:52:00,59.0,54.0,30.23,South,169,0.0,3.0,84,-99.99,,,-99.99,,2013-10-13 07:52:00,
2013-10-13 04:22:00,58.0,54.0,30.24,East,86,0.0,1.0,85,-99.99,,,-99.99,,2013-10-13 08:22:00,
2013-10-13 04:42:00,58.0,54.0,30.24,SE,127,0.0,2.0,85,-99.99,,,-99.99,,2013-10-13 08:42:00,
2013-10-13 04:52:00,58.0,53.0,30.24,East,94,1.0,4.0,84,-99.99,,,-99.99,,2013-10-13 08:52:00,
2013-10-13 05:22:00,58.0,54.0,30.25,East,86,0.0,3.0,85,-99.99,,,-99.99,,2013-10-13 09:22:00,
2013-10-13 05:43:00,57.0,53.0,30.26,North,11,0.0,2.0,85,-99.99,,,-99.99,,2013-10-13 09:43:00,
2013-10-13 05:53:00,57.0,53.0,30.26,SSE,155,0.0,4.0,85,-99.99,,,-99.99,,2013-10-13 09:53:00,
2013-10-13 06:23:00,57.0,53.0,30.27,South,174,0.0,1.0,86,-99.99,,,-99.99,,2013-10-13 10:23:00,
2013-10-13 06:53:00,56.0,52.0,30.28,ENE,64,0.0,2.0,85,-99.99,,,-99.99,,2013-10-13 10:53:00,
2013-10-13 07:22:00,56.0,52.0,30.29,NE,44,0.0,2.0,85,-99.99,,,-99.99,,2013-10-13 11:22:00,
2013-10-13 07:52:00,56.0,52.0,30.29,SE,144,0.0,1.0,86,-99.99,,,-99.99,,2013-10-13 11:52:00,
2013-10-13 08:12:00,56.0,52.0,30.30,WSW,252,0.0,4.0,86,-99.99,,,-99.99,,2013-10-13 12:12:00,
2013-10-13 08:22:00,56.0,52.0,30.30,SE,141,0.0,4.0,86,-99.99,,,-99.99,,2013-10-13 12:22:00,
2013-10-13 08:52:00,56.0,52.0,30.31,SW,227,0.0,6.0,85,-99.99,,,-99.99,,2013-10-13 12:52:00,
2013-10-13 09:12:00,57.0,52.0,30.31,WSW,249,1.0,3.0,84,-99.99,,,-99.99,,2013-10-13 13:12:00,
2013-10-13 09:22:00,58.0,53.0,30.32,South,173,1.0,3.0,83,-99.99,,,-99.99,,2013-10-13 13:22:00,
2013-10-13 09:52:00,58.0,52.0,30.33,ESE,103,1.0,5.0,81,-99.99,,,-99.99,,2013-10-13 13:52:00,
2013-10-13 10:22:00,59.0,53.0,30.33,SE,139,1.0,4.0,80,-99.99,,,-99.99,,2013-10-13 14:22:00,
2013-10-13 10:42:00,59.0,52.0,30.34,ESE,106,0.0,4.0,78,-99.99,,,-99.99,,2013-10-13 14:42:00,
2013-10-13 10:52:00,59.0,52.0,30.33,NNE,28,0.0,3.0,79,-99.99,,,-99.99,,2013-10-13 14:52:00,
2013-10-13 11:12:00,60.0,53.0,30.34,SE,132,1.0,5.0,77,-99.99,,,-99.99,,2013-10-13 15:12:00,
2013-10-13 11:22:00,61.0,54.0,30.33,East,91,2.0,7.0,77,-99.99,,,-99.99,,2013-10-13 15:22:00,
2013-10-13 11:43:00,62.0,54.0,30.33,SSE,157,0.0,5.0,75,-99.99,,,-99.99,,2013-10-13 15:43:00,
2013-10-13 11:54:00,62.0,54.0,30.33,ESE,112,1.0,4.0,74,-99.99,,,-99.99,,2013-10-13 15:54:00,
2013-10-13 12:13:00,63.0,54.0,30.33,SE,127,0.0,2.0,73,-99.99,,,-99.99,,2013-10-13 16:13:00,
2013-10-13 12:24:00,63.0,54.0,30.33,ESE,121,1.0,4.0,73,-99.99,,,-99.99,,2013-10-13 16:24:00,
2013-10-13 12:43:00,64.0,55.0,30.33,NE,51,0.0,3.0,72,-99.99,,,-99.99,,2013-10-13 16:43:00,
2013-10-13 12:54:00,64.0,54.0,30.33,ENE,78,0.0,4.0,71,-99.99,,,-99.99,,2013-10-13 16:54:00,
2013-10-13 13:22:00,66.0,56.0,30.31,ESE,117,1.0,3.0,69,-99.99,,,-99.99,,2013-10-13 17:22:00,
2013-10-13 13:53:00,67.0,56.0,30.30,SSW,205,0.0,3.0,69,-99.99,,,-99.99,,2013-10-13 17:53:00,
2013-10-13 14:22:00,67.0,56.0,30.29,SSE,148,0.0,4.0,69,-99.99,,,-99.99,,2013-10-13 18:22:00,
2013-10-13 14:42:00,67.0,56.0,30.29,SSE,163,0.0,5.0,69,-99.99,,,-99.99,,2013-10-13 18:42:00,
2013-10-13 14:52:00,67.0,56.0,30.29,ESE,114,0.0,6.0,69,-99.99,,,-99.99,,2013-10-13 18:52:00,
2013-10-13 15:11:00,67.0,56.0,30.29,NE,56,1.0,5.0,69,-99.99,,,-99.99,,2013-10-13 19:11:00,
2013-10-13 15:22:00,66.0,56.0,30.28,WSW,242,0.0,5.0,69,-99.99,,,-99.99,,2013-10-13 19:22:00,
2013-10-13 15:53:00,66.0,56.0,30.27,SE,146,0.0,4.0,69,-99.99,,,-99.99,,2013-10-13 19:53:00,
2013-10-13 16:22:00,67.0,56.0,30.27,SE,127,1.0,4.0,67,-99.99,,,-99.99,,2013-10-13 20:22:00,
2013-10-13 16:43:00,66.0,56.0,30.27,ESE,119,0.0,2.0,69,-99.99,,,-99.99,,2013-10-13 20:43:00,
2013-10-13 16:52:00,66.0,56.0,30.27,ESE,119,0.0,2.0,71,-99.99,,,-99.99,,2013-10-13 20:52:00,
2013-10-13 17:21:00,66.0,56.0,30.28,ESE,118,0.0,1.0,69,-99.99,,,-99.99,,2013-10-13 21:21:00,
2013-10-13 17:55:00,67.0,56.0,30.28,East,82,0.0,0.0,69,-99.99,,,-99.99,,2013-10-13 21:55:00,
2013-10-13 18:24:00,65.0,56.0,30.29,East,82,0.0,0.0,72,-99.99,,,-99.99,,2013-10-13 22:24:00,
2013-10-13 18:43:00,63.0,54.0,30.29,East,82,0.0,0.0,73,-99.99,,,-99.99,,2013-10-13 22:43:00,
2013-10-13 18:53:00,62.0,54.0,30.29,East,82,0.0,0.0,75,-99.99,,,-99.99,,2013-10-13 22:53:00,
2013-10-13 19:12:00,60.0,53.0,30.29,East,82,0.0,0.0,77,-99.99,,,-99.99,,2013-10-13 23:12:00,
2013-10-13 19:22:00,59.0,52.0,30.29,East,82,0.0,0.0,79,-99.99,,,-99.99,,2013-10-13 23:22:00,
2013-10-13 19:52:00,56.0,51.0,30.30,East,82,0.0,0.0,82,-99.99,,,-99.99,,2013-10-13 23:52:00,
2013-10-13 20:12:00,55.0,51.0,30.30,East,82,0.0,0.0,85,-99.99,,,-99.99,,2013-10-14 00:12:00,
2013-10-13 20:22:00,54.0,50.0,30.30,East,82,0.0,0.0,86,-99.99,,,-99.99,,2013-10-14 00:22:00,
2013-10-13 20:42:00,53.0,49.0,30.31,East,82,0.0,0.0,86,-99.99,,,-99.99,,2013-10-14 00:42:00,
2013-10-13 20:52:00,52.0,48.0,30.32,East,82,0.0,0.0,87,-99.99,,,-99.99,,2013-10-14 00:52:00,
2013-10-13 21:22:00,51.0,48.0,30.32,East,82,0.0,0.0,89,-99.99,,,-99.99,,2013-10-14 01:22:00,
2013-10-13 21:52:00,51.0,48.0,30.33,East,82,0.0,0.0,90,-99.99,,,-99.99,,2013-10-14 01:52:00,
2013-10-13 22:11:00,50.0,47.0,30.33,East,82,0.0,0.0,90,-99.99,,,-99.99,,2013-10-14 02:11:00,
2013-10-13 22:22:00,50.0,47.0,30.33,East,82,0.0,0.0,91,-99.99,,,-99.99,,2013-10-14 02:22:00,
2013-10-13 22:52:00,49.0,46.0,30.33,East,82,0.0,0.0,91,-99.99,,,-99.99,,2013-10-14 02:52:00,
2013-10-13 23:12:00,49.0,46.0,30.33,East,82,0.0,0.0,91,-99.99,,,-99.99,,2013-10-14 03:12:00,
2013-10-13 23:22:00,48.0,46.0,30.33,East,82,0.0,0.0,92,-99.99,,,-99.99,,2013-10-14 03:22:00,
2013-10-13 23:44:00,48.0,46.0,30.33,East,82,0.0,0.0,92,-99.99,,,-99.99,,2013-10-14 03:44:00,
2013-10-13 23:55:00,48.0,46.0,30.33,East,82,0.0,0.0,92,-99.99,,,-99.99,,2013-10-14 03:55:00,